Hinckley, Minnesota
Current Conditions -  °F | °C
As of 6:27 PM on Wednesday 26 Nov 2014 (Local Time) from K04W Reporting Station
Overcast Overcast  
Wind Chill:   Ceiling: 11000
Heat Index: 19°   Visibility: 10mi
Dew Point:   Wind: 8mph
Humidity: 63%   Direction: 350°N
Pressure: 30.3"   Gusts: 17mph
Location:  46.01°N, 92.94°W
Report Text: K04W 270027Z AUTO 35007G15KT 10SM OVC110 M07/M13 A3030 RMK AO2
Loading
Personal Weather Stations






























Interactive Weather Map New forecast layout! Learn more

10-Day Weather Forecast

Advertisements
Track Severe Weather on mobile